Time;durP1;ratioP1;P1;durP2;ratioP2;P2;SDS_P1;SDS_P2;PMS_P1;PMS_P2;Temp;Humidity;BMP_temperature;BMP_pressure;BME280_temperature;BME280_humidity;BME280_pressure;Samples;Min_cycle;Max_cycle;Signal;HPM_P1;HPM_P2
2022/05/30 00:01:21;;;;;;;6.25;4.05;;;13.80;60.80;;;;;;5074214;28;20067;-73
2022/05/30 00:03:49;;;;;;;7.60;4.13;;;13.70;60.90;;;;;;5075231;28;20031;-75
2022/05/30 00:06:20;;;;;;;6.47;4.88;;;13.70;60.80;;;;;;5077935;28;20051;-72
2022/05/30 00:08:48;;;;;;;5.35;4.18;;;13.70;61.10;;;;;;5100717;28;20141;-72
2022/05/30 00:11:18;;;;;;;5.95;4.38;;;13.70;61.20;;;;;;5093383;28;20028;-74
2022/05/30 00:13:46;;;;;;;5.72;4.38;;;13.80;61.40;;;;;;5093217;28;20028;-72
2022/05/30 00:16:18;;;;;;;5.60;4.75;;;13.80;61.40;;;;;;5094214;28;20035;-73
2022/05/30 00:18:46;;;;;;;6.22;4.70;;;13.80;61.30;;;;;;5095510;28;20055;-73
2022/05/30 00:21:22;;;;;;;6.10;4.68;;;13.80;61.20;;;;;;5095198;28;20031;-73
2022/05/30 00:23:55;;;;;;;7.32;4.93;;;13.80;61.30;;;;;;5095057;28;20067;-73
2022/05/30 00:26:24;;;;;;;9.05;4.63;;;13.90;61.30;;;;;;5095122;28;20430;-73
2022/05/30 00:28:52;;;;;;;7.18;4.57;;;13.90;61.30;;;;;;5090088;28;20028;-73
2022/05/30 00:31:21;;;;;;;6.20;4.72;;;13.90;61.10;;;;;;5093556;28;20028;-72
2022/05/30 00:33:50;;;;;;;6.57;4.80;;;13.90;61.10;;;;;;5093372;28;20028;-73
2022/05/30 00:36:18;;;;;;;6.97;4.50;;;14.00;61.30;;;;;;5087377;28;20028;-73
2022/05/30 00:38:45;;;;;;;7.68;5.60;;;14.00;61.30;;;;;;5093134;28;20064;-73
2022/05/30 00:41:12;;;;;;;6.30;4.90;;;14.00;61.30;;;;;;5094777;28;20031;-73
2022/05/30 00:43:44;;;;;;;10.07;6.97;;;14.00;61.30;;;;;;5092853;28;20044;-72
2022/05/30 00:46:12;;;;;;;12.27;8.85;;;14.10;61.70;;;;;;5094962;28;20028;-73
2022/05/30 00:48:46;;;;;;;15.85;12.13;;;14.10;62.00;;;;;;5093614;28;20121;-73
2022/05/30 00:51:43;;;;;;;15.18;11.85;;;14.10;62.30;;;;;;5094952;28;20482;-73
2022/05/30 00:54:15;;;;;;;12.10;9.35;;;14.20;62.50;;;;;;5084647;28;20380;-73
2022/05/30 00:56:47;;;;;;;15.00;11.50;;;14.20;62.40;;;;;;5073243;28;20024;-73
2022/05/30 00:59:16;;;;;;;20.10;12.77;;;14.30;62.60;;;;;;5088840;28;20606;-73
2022/05/30 01:01:43;;;;;;;16.15;11.95;;;14.30;62.60;;;;;;5093300;28;20093;-72
2022/05/30 01:07:04;;;;;;;18.17;12.50;;;14.40;62.60;;;;;;5094069;28;20055;-73
2022/05/30 01:09:41;;;;;;;18.38;13.10;;;14.40;62.30;;;;;;5094360;28;20080;-72
2022/05/30 01:12:12;;;;;;;20.67;12.73;;;14.40;62.30;;;;;;5092997;28;20020;-73
2022/05/30 01:14:43;;;;;;;15.25;11.25;;;14.50;62.20;;;;;;5092312;28;20035;-73
2022/05/30 01:17:15;;;;;;;15.20;11.65;;;14.50;62.10;;;;;;5092865;28;20039;-73
2022/05/30 01:20:10;;;;;;;12.95;10.57;;;14.50;61.90;;;;;;5092894;28;20024;-73
2022/05/30 01:22:46;;;;;;;12.73;10.02;;;14.50;61.70;;;;;;5093871;28;20020;-73
2022/05/30 01:25:32;;;;;;;15.15;10.57;;;14.50;61.50;;;;;;5091209;28;20391;-73
2022/05/30 01:28:22;;;;;;;13.27;9.35;;;14.50;61.30;;;;;;5091929;28;20126;-73
2022/05/30 01:30:49;;;;;;;14.63;9.98;;;14.50;61.10;;;;;;5092675;28;20028;-73
2022/05/30 01:33:15;;;;;;;16.42;10.25;;;14.50;61.00;;;;;;5094006;28;20090;-73
2022/05/30 01:35:42;;;;;;;16.23;11.60;;;14.50;61.00;;;;;;5092943;28;20025;-73
2022/05/30 01:38:07;;;;;;;14.18;11.10;;;14.50;61.00;;;;;;5092595;28;20191;-73
2022/05/30 01:40:34;;;;;;;16.02;10.98;;;14.40;61.00;;;;;;5093539;28;20019;-73
2022/05/30 01:42:59;;;;;;;18.45;12.85;;;14.40;61.00;;;;;;5091670;28;20028;-73
2022/05/30 01:45:26;;;;;;;15.98;10.93;;;14.40;61.30;;;;;;5092475;28;20590;-73
2022/05/30 01:47:52;;;;;;;21.33;11.98;;;14.40;61.30;;;;;;5093649;28;20107;-73
2022/05/30 01:50:18;;;;;;;19.63;11.65;;;14.40;61.40;;;;;;5092983;28;20103;-73
2022/05/30 01:52:45;;;;;;;14.43;10.27;;;14.40;61.50;;;;;;5091749;28;20472;-73
2022/05/30 01:55:11;;;;;;;16.55;12.80;;;14.30;61.30;;;;;;5088828;28;20376;-72
2022/05/30 01:57:39;;;;;;;16.10;11.25;;;14.30;61.40;;;;;;5073154;28;20032;-73
2022/05/30 02:00:10;;;;;;;17.55;11.50;;;14.30;61.40;;;;;;5073123;28;20028;-73
2022/05/30 02:02:37;;;;;;;15.25;10.52;;;14.30;61.50;;;;;;5073114;28;20448;-73
2022/05/30 02:05:04;;;;;;;14.50;10.38;;;14.20;61.40;;;;;;5090933;28;20036;-73
2022/05/30 02:07:30;;;;;;;17.58;11.90;;;14.20;61.50;;;;;;5091842;28;20055;-73
2022/05/30 02:09:56;;;;;;;17.90;11.23;;;14.20;61.80;;;;;;5093173;28;20082;-73
2022/05/30 02:12:22;;;;;;;17.13;10.85;;;14.20;62.00;;;;;;5090349;28;20020;-73
2022/05/30 02:14:48;;;;;;;16.20;10.57;;;14.20;62.10;;;;;;5093092;28;20096;-73
2022/05/30 02:17:14;;;;;;;14.75;10.50;;;14.30;62.20;;;;;;5092568;28;20468;-73
2022/05/30 02:19:42;;;;;;;14.55;10.35;;;14.30;62.20;;;;;;5091453;28;20459;-73
2022/05/30 02:22:12;;;;;;;14.05;10.73;;;14.30;62.10;;;;;;5093310;28;20112;-73
2022/05/30 02:24:41;;;;;;;16.95;11.88;;;14.30;62.20;;;;;;5090075;28;20038;-73
2022/05/30 02:27:08;;;;;;;16.95;12.57;;;14.30;62.30;;;;;;5073100;28;20039;-73
2022/05/30 02:29:34;;;;;;;18.23;11.95;;;14.30;62.20;;;;;;5073064;28;20120;-73
2022/05/30 02:32:00;;;;;;;16.60;11.68;;;14.30;62.10;;;;;;5073063;28;20055;-73
2022/05/30 02:37:11;;;;;;;13.35;10.10;;;14.20;61.60;;;;;;5080568;28;20035;-73
2022/05/30 02:39:37;;;;;;;14.75;10.77;;;14.20;61.40;;;;;;5077026;28;20115;-73
2022/05/30 02:42:04;;;;;;;13.27;10.05;;;14.10;61.40;;;;;;5077276;28;20467;-73
2022/05/30 02:44:29;;;;;;;13.68;10.75;;;14.10;61.50;;;;;;5076633;28;20077;-73
2022/05/30 02:46:59;;;;;;;15.05;10.43;;;14.00;61.70;;;;;;5075496;28;20111;-73
2022/05/30 02:49:27;;;;;;;13.93;9.95;;;14.00;62.00;;;;;;5075512;28;20027;-73
2022/05/30 02:51:54;;;;;;;14.35;11.05;;;13.90;62.30;;;;;;5090985;28;20028;-72
2022/05/30 02:54:20;;;;;;;14.48;10.68;;;13.90;62.60;;;;;;5086469;28;20028;-73
2022/05/30 02:56:55;;;;;;;14.90;10.45;;;13.90;62.70;;;;;;5092215;28;20170;-73
2022/05/30 02:59:22;;;;;;;14.15;10.23;;;13.90;62.80;;;;;;5095149;28;20020;-73
2022/05/30 03:01:48;;;;;;;18.52;11.52;;;13.90;62.80;;;;;;5096016;28;20031;-73
2022/05/30 03:04:15;;;;;;;16.48;10.43;;;13.90;63.00;;;;;;5095514;28;20384;-72
2022/05/30 03:06:42;;;;;;;13.98;11.27;;;13.90;63.00;;;;;;5093223;28;20106;-72
2022/05/30 03:09:09;;;;;;;15.27;11.88;;;13.90;63.10;;;;;;5096844;28;20124;-73
2022/05/30 03:11:35;;;;;;;15.75;11.27;;;13.90;63.20;;;;;;5096896;28;20016;-73
2022/05/30 03:14:01;;;;;;;13.80;10.45;;;13.90;63.20;;;;;;5095295;28;20490;-72
2022/05/30 03:16:27;;;;;;;17.10;11.38;;;13.90;63.20;;;;;;5095915;28;20448;-72
2022/05/30 03:18:54;;;;;;;16.08;12.20;;;13.90;63.30;;;;;;5096561;28;20024;-73
2022/05/30 03:21:20;;;;;;;18.42;13.50;;;14.00;63.30;;;;;;5095174;28;20464;-73
2022/05/30 03:23:46;;;;;;;18.73;13.45;;;14.00;63.50;;;;;;5096171;28;20077;-72
2022/05/30 03:26:16;;;;;;;21.55;15.30;;;14.00;63.40;;;;;;5095191;28;20040;-73
2022/05/30 03:28:42;;;;;;;20.77;15.38;;;14.00;63.30;;;;;;5075639;28;20026;-73
2022/05/30 03:31:08;;;;;;;17.05;12.88;;;14.00;63.20;;;;;;5074319;28;20028;-73
2022/05/30 03:33:36;;;;;;;18.42;13.48;;;14.10;62.80;;;;;;5075787;28;20021;-73
2022/05/30 03:36:03;;;;;;;15.23;11.85;;;14.00;62.60;;;;;;5085761;28;20028;-73
2022/05/30 03:38:29;;;;;;;16.63;12.25;;;14.00;62.50;;;;;;5094912;28;20073;-73
2022/05/30 03:40:54;;;;;;;15.15;11.63;;;14.00;62.60;;;;;;5094626;28;20460;-73
2022/05/30 03:43:21;;;;;;;14.65;11.02;;;14.00;62.60;;;;;;5095671;28;20080;-73
2022/05/30 03:45:47;;;;;;;13.25;10.05;;;14.00;62.60;;;;;;5094724;28;20115;-73
2022/05/30 03:48:20;;;;;;;13.07;9.85;;;14.00;62.50;;;;;;5095301;28;20063;-73
2022/05/30 03:50:47;;;;;;;13.95;10.23;;;14.10;62.60;;;;;;5096249;28;20016;-72
2022/05/30 03:53:13;;;;;;;13.82;9.63;;;14.10;62.60;;;;;;5079768;28;20476;-73
2022/05/30 03:55:43;;;;;;;12.18;9.95;;;14.20;62.70;;;;;;5081650;28;20024;-73
2022/05/30 03:58:11;;;;;;;16.05;11.55;;;14.20;62.60;;;;;;5094388;28;20489;-73
2022/05/30 04:00:39;;;;;;;17.65;11.93;;;14.30;62.50;;;;;;5095704;28;20028;-72
2022/05/30 04:03:05;;;;;;;14.93;10.38;;;14.40;62.50;;;;;;5093476;28;20063;-73
2022/05/30 04:05:32;;;;;;;16.05;11.20;;;14.40;62.40;;;;;;5095303;28;20475;-73
2022/05/30 04:07:58;;;;;;;16.38;12.15;;;14.50;62.40;;;;;;5095377;28;20059;-73
2022/05/30 04:10:24;;;;;;;16.10;11.52;;;14.50;62.20;;;;;;5095158;28;20028;-73
2022/05/30 04:12:50;;;;;;;14.40;11.02;;;14.50;62.10;;;;;;5094926;28;20491;-73
2022/05/30 04:15:21;;;;;;;16.35;11.73;;;14.60;61.90;;;;;;5094133;28;20024;-73
2022/05/30 04:17:48;;;;;;;17.23;12.45;;;14.60;61.70;;;;;;5093938;28;20376;-73
2022/05/30 04:20:14;;;;;;;16.25;11.52;;;14.70;61.70;;;;;;5093849;28;20376;-73
2022/05/30 04:22:40;;;;;;;16.48;11.73;;;14.70;62.20;;;;;;5092929;28;20490;-73
2022/05/30 04:25:06;;;;;;;20.83;11.55;;;14.70;61.40;;;;;;5094610;28;20396;-73
2022/05/30 04:27:32;;;;;;;15.73;11.93;;;14.70;61.30;;;;;;5095010;28;20020;-73
2022/05/30 04:29:58;;;;;;;15.90;11.13;;;14.80;61.30;;;;;;5094411;28;20038;-73
2022/05/30 04:32:24;;;;;;;19.17;14.13;;;14.80;61.30;;;;;;5093800;28;20020;-73
2022/05/30 04:34:51;;;;;;;18.88;13.95;;;14.80;61.20;;;;;;5089702;28;20488;-72
2022/05/30 04:37:17;;;;;;;22.45;14.30;;;14.90;61.20;;;;;;5073365;28;20036;-72
2022/05/30 04:39:42;;;;;;;16.40;12.15;;;14.90;61.20;;;;;;5074373;28;20024;-73
2022/05/30 04:42:08;;;;;;;17.20;12.93;;;14.90;61.20;;;;;;5077817;28;20581;-72
2022/05/30 04:44:37;;;;;;;20.20;12.80;;;14.90;61.20;;;;;;5093441;28;20032;-73
2022/05/30 04:47:05;;;;;;;17.25;12.70;;;14.90;61.00;;;;;;5092921;28;20031;-73
2022/05/30 04:49:31;;;;;;;17.27;12.40;;;15.00;60.60;;;;;;5094717;28;20440;-73
2022/05/30 04:51:57;;;;;;;18.55;12.43;;;15.00;60.40;;;;;;5088096;28;20154;-73
2022/05/30 04:54:24;;;;;;;17.58;11.25;;;15.10;60.30;;;;;;5074372;28;20104;-73
2022/05/30 04:56:50;;;;;;;18.20;12.27;;;15.10;60.30;;;;;;5086344;28;20028;-73
2022/05/30 04:59:17;;;;;;;17.52;10.95;;;15.20;60.10;;;;;;5093687;28;20055;-73
2022/05/30 05:01:43;;;;;;;15.57;10.98;;;15.20;60.00;;;;;;5088708;28;20070;-73
2022/05/30 05:04:11;;;;;;;14.32;10.63;;;15.30;60.70;;;;;;5072911;28;20028;-73
2022/05/30 05:06:38;;;;;;;17.08;11.65;;;15.30;59.90;;;;;;5081600;28;20460;-73
2022/05/30 05:09:24;;;;;;;16.45;11.75;;;15.40;59.60;;;;;;5094096;28;20062;-73
2022/05/30 05:11:50;;;;;;;18.30;11.52;;;15.40;59.60;;;;;;5093062;28;20027;-73
2022/05/30 05:14:16;;;;;;;15.13;11.95;;;15.50;59.30;;;;;;5092942;28;20138;-73
2022/05/30 05:16:42;;;;;;;19.00;12.70;;;15.50;59.40;;;;;;5093197;28;20531;-73
2022/05/30 05:19:09;;;;;;;17.45;13.35;;;15.60;59.40;;;;;;5091331;28;20101;-73
2022/05/30 05:21:38;;;;;;;17.02;13.07;;;15.70;59.10;;;;;;5093162;28;20078;-73
2022/05/30 05:24:06;;;;;;;16.73;13.05;;;15.70;58.80;;;;;;5090725;28;20116;-73
2022/05/30 05:26:32;;;;;;;17.40;12.85;;;15.80;58.60;;;;;;5093962;28;20111;-73
2022/05/30 05:28:59;;;;;;;16.58;12.10;;;15.90;58.70;;;;;;5092985;28;20059;-73
2022/05/30 05:31:32;;;;;;;16.38;12.70;;;16.00;58.60;;;;;;5092228;28;20030;-73
2022/05/30 05:33:59;;;;;;;16.02;12.27;;;16.10;58.40;;;;;;5093563;28;20119;-73
2022/05/30 05:36:28;;;;;;;14.60;11.32;;;16.20;58.40;;;;;;5093007;28;20034;-73
2022/05/30 05:38:54;;;;;;;18.25;11.20;;;16.20;57.70;;;;;;5092810;28;20020;-73
2022/05/30 05:41:21;;;;;;;14.93;10.98;;;16.30;57.60;;;;;;5092435;28;20108;-73
2022/05/30 05:43:48;;;;;;;15.45;11.55;;;16.40;57.40;;;;;;5091713;28;20071;-73
2022/05/30 05:46:16;;;;;;;17.27;11.50;;;16.40;57.10;;;;;;5092796;28;20086;-73
2022/05/30 05:48:42;;;;;;;15.68;11.35;;;16.40;56.50;;;;;;5092906;28;20038;-73
2022/05/30 05:51:08;;;;;;;15.65;11.90;;;16.40;56.50;;;;;;5091822;28;20023;-73
2022/05/30 05:53:34;;;;;;;13.15;9.77;;;16.40;56.30;;;;;;5093432;28;20046;-73
2022/05/30 05:56:15;;;;;;;13.85;10.23;;;16.40;56.30;;;;;;5093722;28;20056;-73
2022/05/30 05:58:41;;;;;;;14.50;9.00;;;16.40;56.20;;;;;;5091358;28;20491;-73
2022/05/30 06:01:09;;;;;;;16.80;11.25;;;16.50;55.80;;;;;;5092098;28;20024;-73
2022/05/30 06:03:34;;;;;;;13.00;9.73;;;16.40;55.20;;;;;;5093595;28;20032;-73
2022/05/30 06:06:02;;;;;;;9.27;7.13;;;16.40;55.40;;;;;;5093108;28;20028;-73
2022/05/30 06:08:28;;;;;;;10.65;8.50;;;16.40;55.80;;;;;;5092586;28;20162;-73
2022/05/30 06:11:05;;;;;;;15.23;10.13;;;16.40;55.80;;;;;;5091989;28;20076;-73
2022/05/30 06:13:36;;;;;;;13.13;10.25;;;16.50;55.80;;;;;;5093098;28;20103;-73
2022/05/30 06:16:09;;;;;;;10.68;8.55;;;16.40;55.90;;;;;;5092589;28;20494;-73
2022/05/30 06:18:35;;;;;;;11.23;8.32;;;16.40;55.30;;;;;;5092721;28;20020;-74
2022/05/30 06:21:03;;;;;;;11.20;8.27;;;16.40;55.20;;;;;;5093004;28;20020;-73
2022/05/30 06:23:29;;;;;;;15.48;7.85;;;16.40;54.60;;;;;;5092387;28;20467;-72
2022/05/30 06:25:55;;;;;;;12.88;8.00;;;16.40;54.50;;;;;;5091537;28;20169;-72
2022/05/30 06:28:22;;;;;;;12.30;8.38;;;16.40;54.60;;;;;;5092061;28;20073;-72
2022/05/30 06:30:47;;;;;;;10.18;7.82;;;16.40;54.70;;;;;;5092456;28;20036;-72
2022/05/30 06:33:13;;;;;;;10.52;7.22;;;16.40;54.90;;;;;;5092042;28;20038;-72
2022/05/30 06:35:44;;;;;;;7.65;5.88;;;16.40;55.20;;;;;;5091951;28;20375;-72
2022/05/30 06:38:10;;;;;;;8.70;6.40;;;16.50;55.30;;;;;;5091885;28;20555;-72
2022/05/30 06:40:37;;;;;;;8.77;6.70;;;16.60;55.00;;;;;;5092473;28;20028;-72
2022/05/30 06:43:03;;;;;;;11.50;6.80;;;16.70;55.00;;;;;;5091770;28;20411;-73
2022/05/30 06:45:31;;;;;;;13.20;7.88;;;16.70;54.70;;;;;;5091442;28;20467;-73
2022/05/30 06:47:56;;;;;;;13.70;7.93;;;16.80;54.10;;;;;;5090060;28;20024;-73
2022/05/30 06:50:22;;;;;;;16.75;8.75;;;16.90;54.10;;;;;;5081417;28;20088;-75
2022/05/30 06:52:48;;;;;;;14.65;9.23;;;17.00;53.80;;;;;;5088450;28;20036;-73
2022/05/30 06:55:13;;;;;;;12.07;9.25;;;17.10;53.50;;;;;;5080381;28;20471;-73
2022/05/30 07:00:24;;;;;;;12.32;9.32;;;17.20;53.40;;;;;;5092065;28;20130;-73
2022/05/30 07:02:51;;;;;;;14.95;10.85;;;17.30;53.10;;;;;;5091570;28;20464;-74
2022/05/30 07:05:17;;;;;;;17.38;11.13;;;17.30;53.10;;;;;;5091620;28;20028;-73
2022/05/30 07:07:45;;;;;;;16.65;11.68;;;17.30;52.90;;;;;;5090610;28;20048;-73
2022/05/30 07:10:11;;;;;;;19.13;13.98;;;17.40;53.40;;;;;;5090894;28;20032;-73
2022/05/30 07:12:37;;;;;;;19.33;14.05;;;17.40;52.70;;;;;;5090449;28;20039;-73
2022/05/30 07:15:04;;;;;;;23.13;15.52;;;17.50;52.40;;;;;;5092736;28;20426;-73
2022/05/30 07:17:29;;;;;;;22.08;14.45;;;17.60;51.50;;;;;;5090193;28;20167;-73
2022/05/30 07:19:57;;;;;;;21.77;15.18;;;17.70;51.70;;;;;;5077177;28;20111;-73
2022/05/30 07:22:24;;;;;;;25.48;17.92;;;17.70;51.30;;;;;;5091613;28;20026;-73
2022/05/30 07:24:50;;;;;;;26.92;17.90;;;17.70;51.10;;;;;;5093583;28;20031;-73
2022/05/30 07:27:16;;;;;;;23.80;15.82;;;17.60;51.10;;;;;;5095365;28;20039;-73
2022/05/30 07:29:42;;;;;;;25.08;14.63;;;17.60;50.80;;;;;;5092994;28;20031;-73
2022/05/30 07:32:08;;;;;;;17.05;11.63;;;17.50;51.00;;;;;;5091437;28;20391;-73
2022/05/30 07:34:37;;;;;;;21.25;12.98;;;17.50;50.80;;;;;;5087965;28;20173;-73
2022/05/30 07:37:03;;;;;;;22.85;14.23;;;17.40;51.30;;;;;;5094004;28;20482;-73
2022/05/30 07:39:29;;;;;;;22.85;14.65;;;17.40;51.50;;;;;;5095225;28;20028;-73
2022/05/30 07:41:55;;;;;;;20.67;13.95;;;17.40;51.60;;;;;;5094776;28;20039;-73
2022/05/30 07:44:20;;;;;;;22.67;15.25;;;17.50;51.40;;;;;;5095218;28;20115;-73
2022/05/30 07:46:46;;;;;;;20.88;13.45;;;17.50;51.30;;;;;;5095160;28;20097;-74
2022/05/30 07:49:12;;;;;;;22.83;15.18;;;17.60;51.90;;;;;;5095103;28;20423;-73
2022/05/30 07:51:39;;;;;;;24.17;14.55;;;17.70;52.00;;;;;;5089450;28;20464;-73
2022/05/30 07:54:05;;;;;;;23.90;14.90;;;17.80;52.00;;;;;;5093685;28;20040;-73
2022/05/30 07:56:32;;;;;;;29.15;18.08;;;17.90;51.50;;;;;;5093834;28;20460;-73
2022/05/30 07:58:58;;;;;;;21.23;14.15;;;17.90;51.00;;;;;;5094610;28;20186;-73
2022/05/30 08:01:24;;;;;;;23.75;15.65;;;18.00;50.50;;;;;;5094068;28;20118;-73
2022/05/30 08:03:53;;;;;;;23.83;15.15;;;18.00;50.10;;;;;;5093285;28;20124;-74
2022/05/30 08:06:25;;;;;;;22.92;14.80;;;17.90;50.00;;;;;;5092921;28;20038;-74
2022/05/30 08:08:52;;;;;;;20.05;12.77;;;17.90;50.60;;;;;;5094523;28;20052;-73
2022/05/30 08:11:19;;;;;;;28.60;19.52;;;18.10;51.30;;;;;;5092869;28;20032;-73
2022/05/30 08:13:45;;;;;;;30.25;19.85;;;18.20;50.50;;;;;;5094103;28;20027;-73
2022/05/30 08:16:16;;;;;;;29.35;19.17;;;18.40;50.20;;;;;;5092799;28;20028;-74
2022/05/30 08:18:42;;;;;;;30.88;18.92;;;18.50;49.60;;;;;;5094407;28;20035;-73
2022/05/30 08:21:08;;;;;;;34.85;22.80;;;18.60;49.20;;;;;;5094049;28;20111;-73
2022/05/30 08:23:34;;;;;;;35.75;21.85;;;18.70;48.80;;;;;;5093039;28;20115;-73
2022/05/30 08:26:00;;;;;;;28.50;19.67;;;18.80;48.50;;;;;;5093554;28;20032;-73
2022/05/30 08:28:26;;;;;;;35.42;22.58;;;18.80;48.90;;;;;;5090261;28;20040;-73
2022/05/30 08:30:52;;;;;;;37.28;22.58;;;19.00;48.10;;;;;;5093076;28;20035;-74
2022/05/30 08:33:20;;;;;;;34.95;21.92;;;19.00;47.70;;;;;;5093455;28;20475;-73
2022/05/30 08:35:47;;;;;;;31.38;20.23;;;19.00;47.40;;;;;;5094118;28;20039;-73
2022/05/30 08:38:14;;;;;;;26.60;18.27;;;19.00;47.60;;;;;;5093070;28;20101;-74
2022/05/30 08:43:39;;;;;;;33.13;18.52;;;19.30;47.80;;;;;;5089046;28;20036;-73
2022/05/30 08:46:22;;;;;;;26.40;17.08;;;19.50;47.20;;;;;;5084140;28;20024;-73
2022/05/30 08:48:55;;;;;;;23.90;14.55;;;19.70;46.70;;;;;;5094223;28;20043;-73
2022/05/30 08:52:00;;;;;;;22.92;14.25;;;19.80;46.30;;;;;;5088453;28;20043;-73
2022/05/30 08:54:48;;;;;;;24.85;14.18;;;19.90;46.60;;;;;;5093963;28;20030;-73
2022/05/30 08:57:29;;;;;;;24.10;14.00;;;20.10;45.60;;;;;;5091298;28;20032;-74
2022/05/30 09:00:09;;;;;;;20.98;13.52;;;20.10;44.50;;;;;;5088779;28;20032;-73
2022/05/30 09:02:55;;;;;;;19.10;12.10;;;20.20;43.90;;;;;;5095420;28;20368;-74
2022/05/30 09:05:20;;;;;;;19.77;12.82;;;20.10;43.90;;;;;;5083507;28;20458;-73
2022/05/30 09:07:53;;;;;;;17.35;11.15;;;20.10;43.60;;;;;;5092276;28;20044;-74
2022/05/30 09:10:29;;;;;;;21.77;12.88;;;20.00;43.60;;;;;;5093265;28;20028;-74
2022/05/30 09:13:06;;;;;;;20.38;12.90;;;20.00;43.70;;;;;;5092215;28;20078;-73
2022/05/30 09:15:55;;;;;;;18.63;11.55;;;20.00;43.70;;;;;;5091758;28;20053;-73
2022/05/30 09:18:33;;;;;;;22.85;12.07;;;20.00;44.30;;;;;;5081895;28;20035;-73
2022/05/30 09:20:59;;;;;;;24.15;14.68;;;20.00;43.70;;;;;;5090344;28;20376;-73
2022/05/30 09:23:25;;;;;;;23.85;13.85;;;20.10;42.90;;;;;;5083943;28;20032;-73
2022/05/30 09:26:01;;;;;;;18.42;11.57;;;20.20;42.80;;;;;;5093190;28;20036;-73
2022/05/30 09:28:33;;;;;;;20.40;13.77;;;20.20;43.30;;;;;;5106970;28;20020;-73
2022/05/30 09:31:20;;;;;;;19.77;13.95;;;20.30;43.00;;;;;;5090062;28;20032;-73
2022/05/30 09:33:50;;;;;;;18.90;13.45;;;20.40;43.60;;;;;;5089783;28;20036;-73
2022/05/30 09:36:28;;;;;;;19.70;13.00;;;20.50;43.30;;;;;;5088880;28;20064;-73
2022/05/30 09:39:15;;;;;;;19.90;12.50;;;20.50;42.60;;;;;;5086371;28;20528;-73
2022/05/30 09:41:40;;;;;;;19.15;13.48;;;20.50;42.10;;;;;;5091387;28;20051;-73
2022/05/30 09:44:19;;;;;;;16.40;11.00;;;20.50;42.20;;;;;;5089712;28;20471;-73
2022/05/30 09:47:00;;;;;;;19.98;10.63;;;20.50;42.00;;;;;;5089880;28;20024;-73
2022/05/30 09:49:38;;;;;;;14.85;10.27;;;20.50;40.80;;;;;;5084938;28;20020;-73
2022/05/30 09:52:33;;;;;;;23.83;12.82;;;20.50;41.60;;;;;;5092388;28;20028;-73
2022/05/30 09:55:19;;;;;;;21.77;12.95;;;20.50;42.20;;;;;;5092964;28;20112;-73
2022/05/30 09:57:45;;;;;;;13.63;9.00;;;20.50;41.30;;;;;;5093835;28;20149;-73
2022/05/30 10:00:17;;;;;;;15.60;10.40;;;20.60;40.50;;;;;;5091243;28;20111;-73
2022/05/30 10:02:45;;;;;;;18.13;12.45;;;20.60;40.50;;;;;;5090504;28;20028;-74
2022/05/30 10:05:20;;;;;;;17.58;10.20;;;20.60;39.80;;;;;;5092024;28;20028;-73
2022/05/30 10:07:55;;;;;;;13.93;8.88;;;20.50;40.50;;;;;;5083482;28;20047;-74
2022/05/30 10:10:28;;;;;;;9.27;5.95;;;20.50;39.20;;;;;;5090969;28;20549;-73
2022/05/30 10:13:04;;;;;;;8.05;5.57;;;20.50;39.50;;;;;;5089097;28;20059;-72
2022/05/30 10:15:44;;;;;;;9.45;5.20;;;20.50;39.50;;;;;;5072045;28;20163;-73
2022/05/30 10:18:22;;;;;;;11.32;6.75;;;20.50;38.90;;;;;;5071797;28;20064;-73
2022/05/30 10:21:03;;;;;;;9.23;6.15;;;20.50;39.20;;;;;;5093552;28;20651;-73
2022/05/30 10:30:09;;;;;;;7.50;5.70;;;20.40;39.00;;;;;;5091681;28;20047;-71
2022/05/30 10:32:55;;;;;;;7.85;5.68;;;20.40;38.90;;;;;;5092412;28;20027;-72
2022/05/30 10:35:35;;;;;;;8.50;6.28;;;20.30;39.10;;;;;;5091627;28;20036;-73
2022/05/30 10:38:18;;;;;;;12.35;6.03;;;20.30;39.20;;;;;;5091241;28;20028;-72
2022/05/30 10:40:52;;;;;;;8.50;5.80;;;20.30;39.80;;;;;;5092959;28;20468;-72
2022/05/30 10:43:26;;;;;;;6.63;4.40;;;20.30;40.20;;;;;;5091253;28;20114;-73
2022/05/30 10:46:06;;;;;;;9.63;4.75;;;20.30;40.90;;;;;;5092770;28;20425;-72
2022/05/30 10:48:49;;;;;;;8.52;4.40;;;20.30;40.70;;;;;;5077538;28;20128;-73
2022/05/30 10:51:27;;;;;;;6.00;4.60;;;20.40;40.50;;;;;;5093050;28;20154;-73
2022/05/30 10:54:17;;;;;;;6.00;4.20;;;20.40;40.40;;;;;;5091659;28;20028;-73
2022/05/30 10:56:48;;;;;;;8.57;4.97;;;20.50;40.80;;;;;;5092919;28;20111;-73
2022/05/30 10:59:45;;;;;;;7.32;5.22;;;20.50;39.50;;;;;;5094746;28;20027;-73
2022/05/30 11:02:43;;;;;;;6.18;4.93;;;20.50;39.40;;;;;;5100623;28;20024;-73
2022/05/30 11:05:32;;;;;;;6.38;4.55;;;20.50;39.60;;;;;;5099589;28;20035;-72
2022/05/30 11:08:12;;;;;;;6.55;4.53;;;20.50;39.30;;;;;;5087520;28;20052;-72
2022/05/30 11:11:19;;;;;;;7.15;4.57;;;20.50;39.10;;;;;;5075058;28;20043;-73
2022/05/30 11:14:03;;;;;;;5.65;3.80;;;20.50;38.50;;;;;;5092151;28;20400;-72
2022/05/30 11:16:54;;;;;;;6.35;3.90;;;20.50;38.20;;;;;;5095284;28;20474;-73
2022/05/30 11:19:32;;;;;;;8.93;3.83;;;20.50;38.50;;;;;;5090243;28;20467;-73
2022/05/30 11:22:19;;;;;;;8.05;3.42;;;20.50;37.50;;;;;;5096382;28;20024;-72
2022/05/30 11:24:51;;;;;;;4.22;2.60;;;20.50;37.80;;;;;;5085155;28;20472;-73
2022/05/30 11:27:35;;;;;;;4.40;2.50;;;20.50;38.10;;;;;;5082893;28;20384;-73
2022/05/30 11:30:31;;;;;;;3.10;2.30;;;20.60;37.90;;;;;;5094430;28;20038;-73
2022/05/30 11:33:32;;;;;;;3.78;2.78;;;20.60;37.30;;;;;;5093311;28;20111;-73
2022/05/30 11:36:45;;;;;;;4.68;3.10;;;20.70;37.60;;;;;;5096061;28;20101;-73
2022/05/30 11:39:34;;;;;;;5.95;2.63;;;20.80;38.10;;;;;;5013793;28;20033;-74
2022/05/30 11:42:19;;;;;;;3.63;2.60;;;20.90;37.30;;;;;;5009356;28;20022;-73
2022/05/30 11:44:53;;;;;;;3.03;2.05;;;20.90;36.70;;;;;;5070937;28;20143;-73
2022/05/30 11:48:00;;;;;;;7.32;2.92;;;21.10;36.70;;;;;;5095999;28;20030;-73
2022/05/30 11:50:32;;;;;;;9.20;2.13;;;21.20;36.70;;;;;;5095310;28;20103;-73
2022/05/30 11:53:18;;;;;;;3.25;1.92;;;21.20;35.80;;;;;;5092216;28;20365;-74
2022/05/30 11:55:58;;;;;;;4.55;2.00;;;21.30;34.80;;;;;;5091209;28;20036;-74
2022/05/30 11:58:45;;;;;;;4.13;2.28;;;21.30;33.80;;;;;;5093123;28;20039;-74
2022/05/30 12:01:12;;;;;;;3.40;2.17;;;21.40;33.90;;;;;;5093898;28;20024;-73
2022/05/30 12:03:46;;;;;;;5.57;2.20;;;21.40;33.60;;;;;;5093686;28;20553;-73
2022/05/30 12:06:21;;;;;;;5.32;2.28;;;21.50;34.00;;;;;;5096115;28;20027;-74
2022/05/30 12:09:07;;;;;;;3.15;1.83;;;21.50;32.80;;;;;;5079106;28;20182;-74
2022/05/30 12:11:45;;;;;;;2.60;1.83;;;21.50;32.00;;;;;;5085674;28;20368;-74
2022/05/30 12:14:32;;;;;;;2.80;1.70;;;21.60;30.10;;;;;;5084765;28;20115;-73
2022/05/30 12:17:19;;;;;;;1.80;1.60;;;21.70;30.10;;;;;;5093960;28;20032;-73
2022/05/30 12:25:35;;;;;;;5.03;1.95;;;21.90;30.50;;;;;;5095249;28;20536;-74
2022/05/30 12:28:27;;;;;;;3.83;1.75;;;22.00;30.50;;;;;;5093128;28;20038;-73
2022/05/30 12:30:59;;;;;;;3.50;1.85;;;22.00;30.30;;;;;;5046479;28;20036;-73
2022/05/30 12:33:30;;;;;;;2.17;1.55;;;22.10;29.40;;;;;;5094468;28;20052;-74
2022/05/30 12:36:08;;;;;;;3.17;1.70;;;22.20;30.30;;;;;;5093243;28;20077;-73
2022/05/30 12:38:57;;;;;;;3.55;1.75;;;22.30;30.00;;;;;;5093463;28;20032;-74
2022/05/30 12:41:34;;;;;;;2.38;1.73;;;22.40;29.70;;;;;;5092591;28;20419;-74
2022/05/30 12:44:00;;;;;;;5.30;1.98;;;22.40;29.50;;;;;;5092960;28;20177;-74
2022/05/30 12:46:29;;;;;;;1.83;1.50;;;22.50;29.10;;;;;;5093854;28;20024;-74
2022/05/30 12:49:14;;;;;;;3.15;2.50;;;22.50;29.30;;;;;;5094013;28;20028;-74
2022/05/30 12:52:01;;;;;;;4.32;3.15;;;22.50;28.80;;;;;;5092050;28;20032;-78
2022/05/30 12:54:34;;;;;;;5.35;3.25;;;22.60;28.50;;;;;;5093542;28;20353;-73
2022/05/30 12:57:04;;;;;;;6.63;3.50;;;22.60;28.90;;;;;;5094710;28;20035;-75
2022/05/30 12:59:33;;;;;;;11.38;4.55;;;22.60;28.30;;;;;;5092429;28;20490;-73
2022/05/30 13:02:02;;;;;;;2.80;2.10;;;22.60;28.40;;;;;;5092677;28;20050;-74
2022/05/30 13:04:36;;;;;;;3.10;1.60;;;22.70;27.70;;;;;;5093078;28;20106;-72
2022/05/30 13:07:02;;;;;;;7.88;3.85;;;22.70;28.30;;;;;;5092540;28;20035;-74
2022/05/30 13:09:33;;;;;;;7.65;4.18;;;22.80;28.60;;;;;;5092994;28;20032;-74
2022/05/30 13:12:20;;;;;;;6.00;3.22;;;22.90;28.60;;;;;;5094604;28;20024;-74
2022/05/30 13:15:01;;;;;;;3.95;1.88;;;23.00;28.70;;;;;;5094322;28;20032;-74
2022/05/30 13:17:51;;;;;;;3.45;1.77;;;23.10;28.50;;;;;;5093723;28;20140;-74
2022/05/30 13:20:19;;;;;;;2.97;2.03;;;23.10;27.50;;;;;;5082813;28;20051;-74